»·PEaware :: PAA576 KASE-KCVG

PAA576 :: KASE-KCVG

FLIGHT INFORMATION

Flight Status: Arrived
Operator:
PanAm
More flights by this operator :: More flights under this callsign
Pilot: Anonymous 8274 (8274)
Aircraft: BOEING 727-200
(B722)
More flights by this aircraft type
Origin: KASE Aspen-Pitkin Co/Sardy
United States
Destination: KCVG Cincinnati/Northern Ky Intl
United States
More flights between these airports :: More routes between these airports
Route: +LINDZ9 DBL J80 MCI J24 STL J19 RBS V227 BVT SHB6
File this flight plan on PilotEdge
Remarks:
Altitude:
(Current/Filed)
33,000ft
Speed:
(Current/Filed)
475kts
Departed: 02-Sep-18 03:58 PM
Arrived: 02-Sep-18 07:08 PM
Distance/Time
Traveled:
1030nm/3:10
Distance/Time
To Go:
Arrived

Flight Plot

Page will automatically refresh every two minutes.

Flight plan parsing failed; only flown route is shown


Map Options




Map Legend


Flown Route
Filed Route
Departure Airport
Arrival Airport
Navaid (VOR, NDB)
Fix

Horizontal Profiles

Position Reports

Time Latitude Longitude Heading Altitude Ground
Speed
02-Sep-18 15:12 39.219455 -106.865170 79 7785ft 0kts
02-Sep-18 15:13 39.219455 -106.865170 79 7785ft 0kts
02-Sep-18 15:14 39.219455 -106.865170 79 7785ft 0kts
02-Sep-18 15:15 39.219455 -106.865170 79 7785ft 0kts
02-Sep-18 15:16 39.219455 -106.865170 79 7785ft 0kts
02-Sep-18 15:17 39.219455 -106.865170 79 7785ft 0kts
02-Sep-18 15:18 39.219455 -106.865170 79 7785ft 0kts
02-Sep-18 15:19 39.219455 -106.865170 79 7785ft 0kts
02-Sep-18 15:20 39.219455 -106.865170 79 7785ft 0kts
02-Sep-18 15:21 39.219455 -106.865170 79 7785ft 0kts
02-Sep-18 15:22 39.219455 -106.865170 79 7785ft 0kts
02-Sep-18 15:23 39.219455 -106.865170 79 7785ft 0kts
02-Sep-18 15:24 39.219455 -106.865170 79 7785ft 0kts
02-Sep-18 15:25 39.219455 -106.865170 79 7785ft 0kts
02-Sep-18 15:26 39.219455 -106.865170 79 7785ft 0kts
02-Sep-18 15:27 39.219455 -106.865170 79 7785ft 0kts
02-Sep-18 15:28 39.219455 -106.865170 79 7785ft 0kts
02-Sep-18 15:29 39.219455 -106.865170 79 7785ft 0kts
02-Sep-18 15:30 39.219455 -106.865170 79 7785ft 0kts
02-Sep-18 15:31 39.219455 -106.865170 79 7785ft 0kts
02-Sep-18 15:32 39.219455 -106.865170 79 7785ft 0kts
02-Sep-18 15:33 39.219455 -106.865170 79 7785ft 0kts
02-Sep-18 15:34 39.219455 -106.865170 79 7785ft 0kts
02-Sep-18 15:35 39.219455 -106.865170 79 7785ft 0kts
02-Sep-18 15:37 39.219455 -106.865170 79 7785ft 0kts
02-Sep-18 15:38 39.219455 -106.865170 79 7785ft 0kts
02-Sep-18 15:39 39.219455 -106.865170 79 7785ft 0kts
02-Sep-18 15:40 39.219455 -106.865170 79 7785ft 0kts
02-Sep-18 15:41 39.219455 -106.865170 79 7785ft 0kts
02-Sep-18 15:42 39.219455 -106.865170 79 7785ft 0kts
02-Sep-18 15:43 39.219455 -106.865170 79 7785ft 0kts
02-Sep-18 15:44 39.219431 -106.865342 79 7785ft 2kts
02-Sep-18 15:45 39.219653 -106.865967 158 7785ft 0kts
02-Sep-18 15:46 39.219722 -106.865996 160 7785ft 0kts
02-Sep-18 15:47 39.219722 -106.865996 160 7785ft 0kts
02-Sep-18 15:48 39.219722 -106.865996 160 7785ft 0kts
02-Sep-18 15:49 39.219722 -106.865996 160 7785ft 0kts
02-Sep-18 15:50 39.219722 -106.865996 160 7785ft 0kts
02-Sep-18 15:51 39.219722 -106.865996 160 7785ft 0kts
02-Sep-18 15:52 39.219722 -106.865996 160 7785ft 0kts
02-Sep-18 15:53 39.217795 -106.865069 159 7785ft 9kts
02-Sep-18 15:54 39.213950 -106.863243 159 7785ft 18kts
02-Sep-18 15:55 39.212312 -106.862509 177 7785ft 0kts
02-Sep-18 15:56 39.212312 -106.862509 177 7785ft 0kts
02-Sep-18 15:57 39.212312 -106.862509 177 7785ft 0kts
02-Sep-18 15:58 39.212312 -106.862509 177 7785ft 0kts
02-Sep-18 15:59 39.211833 -106.863422 337 7785ft 4kts
02-Sep-18 16:00 39.228645 -106.871458 339 7785ft 154kts
02-Sep-18 16:01 39.276473 -106.885972 351 8560ft 202kts
02-Sep-18 16:02 39.321694 -106.921089 288 10302ft 215kts
02-Sep-18 16:03 39.340870 -107.001351 284 11973ft 255kts
02-Sep-18 16:04 39.361688 -107.098247 284 13581ft 306kts
02-Sep-18 16:05 39.407149 -107.195311 328 15122ft 356kts
02-Sep-18 16:06 39.478745 -107.282836 331 17521ft 363kts
02-Sep-18 16:07 39.569626 -107.255966 54 19541ft 373kts
02-Sep-18 16:08 39.563300 -107.128869 123 20912ft 400kts
02-Sep-18 16:09 39.503996 -107.006198 127 22898ft 402kts
02-Sep-18 16:10 39.437430 -106.890806 130 24615ft 404kts
02-Sep-18 16:11 39.424346 -106.750585 66 25852ft 434kts
02-Sep-18 16:12 39.475555 -106.607523 66 27054ft 443kts
02-Sep-18 16:13 39.506670 -106.454144 82 28052ft 447kts
02-Sep-18 16:14 39.526773 -106.302953 82 29060ft 454kts
02-Sep-18 16:15 39.548303 -106.143332 82 29975ft 461kts
02-Sep-18 16:16 39.566793 -105.977865 85 30832ft 467kts
02-Sep-18 16:16 39.576408 -105.839742 88 31494ft 470kts
02-Sep-18 16:18 39.589052 -105.640840 88 32033ft 485kts
02-Sep-18 16:19 39.606534 -105.464133 84 32391ft 500kts
02-Sep-18 16:20 39.624649 -105.294870 85 33138ft 501kts
02-Sep-18 16:20 39.640899 -105.144736 85 33009ft 518kts
02-Sep-18 16:21 39.661099 -104.956844 84 32895ft 533kts
02-Sep-18 16:22 39.681475 -104.768854 84 32889ft 520kts
02-Sep-18 16:23 39.701840 -104.584899 84 32892ft 513kts
02-Sep-18 16:24 39.698948 -104.403799 97 32867ft 501kts
02-Sep-18 16:25 39.682986 -104.234041 101 32863ft 495kts
02-Sep-18 16:26 39.664790 -104.057975 101 32864ft 493kts
02-Sep-18 16:27 39.645380 -103.883133 104 32892ft 488kts
02-Sep-18 16:28 39.621312 -103.710508 104 32893ft 486kts
02-Sep-18 16:29 39.597693 -103.539150 103 32893ft 485kts
02-Sep-18 16:30 39.574393 -103.368061 103 32895ft 485kts
02-Sep-18 16:31 39.552503 -103.204552 102 32889ft 487kts
02-Sep-18 16:32 39.541254 -103.029538 96 32837ft 493kts
02-Sep-18 16:33 39.533968 -102.851906 96 32838ft 495kts
02-Sep-18 16:34 39.526910 -102.673864 96 32839ft 496kts
02-Sep-18 16:35 39.510817 -102.497786 104 32838ft 492kts
02-Sep-18 16:36 39.483965 -102.324756 105 32837ft 493kts
02-Sep-18 16:37 39.457385 -102.151624 105 32836ft 495kts
02-Sep-18 16:38 39.430860 -101.977348 105 32833ft 496kts
02-Sep-18 16:39 39.397832 -101.805194 109 32810ft 494kts
02-Sep-18 16:40 39.390813 -101.627275 89 32811ft 504kts
02-Sep-18 16:41 39.392039 -101.447777 98 32819ft 499kts
02-Sep-18 16:42 39.376287 -101.271061 101 32781ft 500kts
02-Sep-18 16:43 39.352191 -101.095186 105 32781ft 497kts
02-Sep-18 16:44 39.327630 -100.919294 101 32784ft 500kts
02-Sep-18 16:45 39.309428 -100.742130 101 32783ft 501kts
02-Sep-18 16:46 39.291428 -100.565047 101 32775ft 503kts
02-Sep-18 16:47 39.273596 -100.385365 99 32730ft 506kts
02-Sep-18 16:48 39.260505 -100.205221 99 32725ft 506kts
02-Sep-18 16:49 39.263919 -100.023885 86 32728ft 512kts
02-Sep-18 16:50 39.279064 -99.841769 86 32728ft 513kts
02-Sep-18 16:51 39.282449 -99.660755 99 32734ft 505kts
02-Sep-18 16:52 39.270943 -99.479958 91 32732ft 510kts
02-Sep-18 16:53 39.276049 -99.297133 90 32725ft 511kts
02-Sep-18 16:54 39.283089 -99.114873 90 32701ft 513kts
02-Sep-18 16:55 39.288958 -98.932609 90 32701ft 512kts
02-Sep-18 16:56 39.293832 -98.749488 90 32704ft 511kts
02-Sep-18 16:57 39.298697 -98.567316 89 32702ft 511kts
02-Sep-18 16:58 39.304123 -98.384169 89 32703ft 511kts
02-Sep-18 16:59 39.309751 -98.204087 90 32699ft 510kts
02-Sep-18 17:00 39.315731 -98.021387 89 32700ft 510kts
02-Sep-18 17:01 39.321931 -97.838411 89 32701ft 510kts
02-Sep-18 17:02 39.328346 -97.655891 89 32702ft 510kts
02-Sep-18 17:03 39.334989 -97.474024 89 32703ft 511kts
02-Sep-18 17:04 39.341919 -97.291540 89 32699ft 511kts
02-Sep-18 17:05 39.349172 -97.108558 89 32700ft 511kts
02-Sep-18 17:06 39.352364 -96.925669 92 32701ft 510kts
02-Sep-18 17:07 39.350253 -96.743529 92 32702ft 510kts
02-Sep-18 17:08 39.344993 -96.561146 97 32706ft 508kts
02-Sep-18 17:09 39.332017 -96.380109 97 32703ft 508kts
02-Sep-18 17:10 39.319322 -96.199678 97 32700ft 508kts
02-Sep-18 17:11 39.306993 -96.018836 97 32704ft 503kts
02-Sep-18 17:12 39.296030 -95.842435 97 32695ft 487kts
02-Sep-18 17:13 39.288173 -95.671303 92 32701ft 475kts
02-Sep-18 17:14 39.287633 -95.501536 92 32700ft 472kts
02-Sep-18 17:15 39.290743 -95.334158 90 32722ft 469kts
02-Sep-18 17:16 39.297600 -95.166923 89 32727ft 467kts
02-Sep-18 17:17 39.304699 -95.000732 89 32727ft 465kts
02-Sep-18 17:18 39.305973 -94.835544 95 32728ft 460kts
02-Sep-18 17:19 39.300239 -94.670568 95 32727ft 460kts
02-Sep-18 17:20 39.281272 -94.509424 102 32728ft 456kts
02-Sep-18 17:21 39.260816 -94.349117 102 32727ft 456kts
02-Sep-18 17:22 39.240577 -94.188716 102 32727ft 456kts
02-Sep-18 17:23 39.224260 -94.026725 100 32727ft 457kts
02-Sep-18 17:24 39.208856 -93.865119 99 32727ft 457kts
02-Sep-18 17:25 39.193733 -93.703897 99 32752ft 456kts
02-Sep-18 17:26 39.178795 -93.542072 99 32753ft 457kts
02-Sep-18 17:27 39.164103 -93.380397 99 32753ft 457kts
02-Sep-18 17:28 39.149653 -93.218974 99 32754ft 457kts
02-Sep-18 17:29 39.135346 -93.056706 99 32753ft 457kts
02-Sep-18 17:30 39.121256 -92.894452 99 32754ft 457kts
02-Sep-18 17:31 39.107429 -92.732761 98 32753ft 457kts
02-Sep-18 17:32 39.093811 -92.570930 98 32753ft 456kts
02-Sep-18 17:33 39.080376 -92.408890 98 32752ft 456kts
02-Sep-18 17:34 39.067200 -92.247672 98 32780ft 456kts
02-Sep-18 17:35 39.054212 -92.086552 98 32780ft 456kts
02-Sep-18 17:36 39.041606 -91.925521 98 32779ft 454kts
02-Sep-18 17:37 39.027957 -91.765164 101 32777ft 450kts
02-Sep-18 17:38 39.008175 -91.606280 101 32777ft 448kts
02-Sep-18 17:39 38.988728 -91.448687 100 32776ft 447kts
02-Sep-18 17:40 38.969495 -91.292076 101 32781ft 445kts
02-Sep-18 17:41 38.950374 -91.136090 101 32780ft 444kts
02-Sep-18 17:42 38.930561 -90.979852 101 32787ft 443kts
02-Sep-18 17:43 38.911498 -90.823453 100 32778ft 443kts
02-Sep-18 17:45 38.887025 -90.670874 104 32783ft 441kts
02-Sep-18 17:46 38.860701 -90.517530 95 32770ft 442kts
02-Sep-18 17:47 38.919393 -90.383857 40 32804ft 462kts
02-Sep-18 17:48 39.019968 -90.284925 41 32807ft 463kts
02-Sep-18 17:49 39.110838 -90.184366 45 32787ft 462kts
02-Sep-18 17:50 39.206481 -90.076084 45 32809ft 462kts
02-Sep-18 17:51 39.288945 -89.953602 54 32809ft 456kts
02-Sep-18 17:52 39.369572 -89.828358 53 32808ft 457kts
02-Sep-18 17:53 39.452661 -89.705479 50 32808ft 459kts
02-Sep-18 17:54 39.539867 -89.585951 46 32806ft 461kts
02-Sep-18 17:55 39.633092 -89.473950 46 32807ft 461kts
02-Sep-18 17:56 39.726893 -89.361392 46 32808ft 462kts
02-Sep-18 17:57 39.820761 -89.248940 46 32813ft 463kts
02-Sep-18 17:58 39.915438 -89.135733 46 32813ft 464kts
02-Sep-18 17:59 40.010571 -89.022045 48 32810ft 464kts
02-Sep-18 18:00 40.085309 -88.888709 55 32810ft 458kts
02-Sep-18 18:01 40.153955 -88.751749 55 32811ft 459kts
02-Sep-18 18:02 40.234692 -88.624677 45 32811ft 457kts
02-Sep-18 18:03 40.322051 -88.505241 42 32810ft 456kts
02-Sep-18 18:04 40.413555 -88.391183 42 32809ft 457kts
02-Sep-18 18:05 40.499954 -88.279250 45 32811ft 457kts
02-Sep-18 18:06 40.585820 -88.156611 45 32810ft 457kts
02-Sep-18 18:07 40.612136 -88.000485 102 32831ft 465kts
02-Sep-18 18:08 40.582304 -87.835684 98 32806ft 465kts
02-Sep-18 18:09 40.575331 -87.667613 90 32783ft 463kts
02-Sep-18 18:10 40.569990 -87.498438 90 32808ft 464kts
02-Sep-18 18:11 40.564986 -87.330581 90 32809ft 465kts
02-Sep-18 18:12 40.560231 -87.161142 90 32810ft 466kts
02-Sep-18 18:13 40.526020 -87.000661 132 32819ft 475kts
02-Sep-18 18:14 40.407868 -86.925453 160 32808ft 480kts
02-Sep-18 18:15 40.280826 -86.879899 163 32325ft 463kts
02-Sep-18 18:16 40.164049 -86.819908 153 30289ft 446kts
02-Sep-18 18:17 40.053897 -86.752133 151 28333ft 433kts
02-Sep-18 18:18 39.961743 -86.663816 116 26479ft 404kts
02-Sep-18 18:19 39.910998 -86.538352 115 24919ft 384kts
02-Sep-18 18:20 39.864191 -86.417637 121 23039ft 376kts
02-Sep-18 18:21 39.809449 -86.304526 121 21266ft 365kts
02-Sep-18 18:22 39.765363 -86.209877 109 19761ft 356kts
02-Sep-18 18:23 39.729189 -86.096371 115 17977ft 343kts
02-Sep-18 18:24 39.687331 -85.989295 115 15062ft 334kts
02-Sep-18 18:24 39.652680 -85.905325 106 13821ft 293kts
02-Sep-18 18:26 39.624387 -85.791116 106 13838ft 292kts
02-Sep-18 18:27 39.587294 -85.693824 106 13852ft 323kts
02-Sep-18 18:28 39.554801 -85.580500 108 13835ft 338kts
02-Sep-18 18:28 39.524308 -85.488080 117 13826ft 337kts
02-Sep-18 18:30 39.448350 -85.386043 130 13834ft 336kts
02-Sep-18 18:30 39.394556 -85.315113 130 13839ft 335kts
02-Sep-18 18:31 39.332997 -85.234129 127 13608ft 300kts
02-Sep-18 18:33 39.270443 -85.138714 124 11264ft 301kts
02-Sep-18 18:33 39.228515 -85.068915 121 9348ft 293kts
02-Sep-18 18:34 39.186122 -84.984377 118 7460ft 267kts
02-Sep-18 18:35 39.149333 -84.904842 121 5834ft 254kts
02-Sep-18 18:36 39.146771 -84.830941 28 5847ft 227kts
02-Sep-18 18:37 39.208185 -84.823831 0 5842ft 231kts
02-Sep-18 18:38 39.274607 -84.819764 0 5836ft 241kts
02-Sep-18 18:39 39.337508 -84.815575 5 5214ft 225kts
02-Sep-18 18:40 39.361704 -84.751459 92 4809ft 205kts
02-Sep-18 18:41 39.347488 -84.688473 154 4818ft 174kts
02-Sep-18 18:42 39.300554 -84.680706 183 4605ft 170kts
02-Sep-18 18:43 39.253848 -84.682896 184 3798ft 156kts
02-Sep-18 18:44 39.209177 -84.684368 177 2829ft 161kts
02-Sep-18 18:45 39.164768 -84.682857 179 2244ft 156kts
02-Sep-18 18:46 39.124955 -84.683763 176 2030ft 128kts
02-Sep-18 18:47 39.087400 -84.683755 179 1270ft 138kts
02-Sep-18 18:48 39.047022 -84.684018 180 1539ft 170kts
02-Sep-18 18:50 38.980169 -84.689677 207 3447ft 247kts
02-Sep-18 18:50 38.953474 -84.754733 255 3886ft 276kts
02-Sep-18 18:51 38.935895 -84.857238 242 2830ft 299kts
02-Sep-18 18:52 38.898583 -84.944660 243 2834ft 267kts
02-Sep-18 18:53 38.841517 -84.963910 135 2931ft 270kts
02-Sep-18 18:54 38.851546 -84.879933 39 4842ft 274kts
02-Sep-18 18:55 38.907447 -84.814402 37 4837ft 273kts
02-Sep-18 18:56 38.964264 -84.751883 37 4837ft 273kts
02-Sep-18 18:57 39.031673 -84.750127 339 4833ft 254kts
02-Sep-18 18:59 39.104168 -84.781417 339 4833ft 238kts
02-Sep-18 18:59 39.156490 -84.803379 348 4836ft 245kts
02-Sep-18 19:00 39.223843 -84.800170 0 4837ft 240kts
02-Sep-18 19:01 39.289163 -84.795775 0 4835ft 231kts
02-Sep-18 19:03 39.319541 -84.725052 90 4830ft 221kts
02-Sep-18 19:03 39.292375 -84.683282 178 4825ft 182kts
02-Sep-18 19:04 39.240154 -84.681208 181 3885ft 199kts
02-Sep-18 19:06 39.180856 -84.682885 176 2314ft 183kts
02-Sep-18 19:06 39.143271 -84.683795 181 2289ft 146kts
02-Sep-18 19:07 39.104666 -84.683544 179 1588ft 137kts
02-Sep-18 19:08 39.066603 -84.683729 180 875ft 136kts
02-Sep-18 19:09 39.051275 -84.682421 134 873ft 0kts
02-Sep-18 19:10 39.051275 -84.682421 134 873ft 0kts
02-Sep-18 19:11 39.051275 -84.682421 134 873ft 0kts
02-Sep-18 19:12 39.048375 -84.681462 179 873ft 20kts
02-Sep-18 19:13 39.047418 -84.675303 89 873ft 29kts
02-Sep-18 19:14 39.048182 -84.666493 359 873ft 13kts
02-Sep-18 19:15 39.048793 -84.660806 89 873ft 27kts
02-Sep-18 19:16 39.049672 -84.658358 1 873ft 0kts
02-Sep-18 19:17 39.073613 -84.683651 179 963ft 136kts
02-Sep-18 19:18 39.088492 -84.683707 178 1268ft 137kts
02-Sep-18 19:19 39.054817 -84.683787 179 873ft 64kts
02-Sep-18 19:20 39.076962 -84.683683 179 1024ft 137kts
02-Sep-18 19:21 39.059637 -84.683769 179 874ft 101kts
02-Sep-18 19:22 39.086436 -84.683699 179 1218ft 138kts
02-Sep-18 19:23 39.053866 -84.683788 179 873ft 47kts
02-Sep-18 19:24 39.056915 -84.683775 180 873ft 82kts

Navigation Log

Ident Type
Flight plan parsing failed, navigation log unavailable